Hamilton, Mississippi
Current Conditions -  °F | °C
As of 4:58 AM on Wednesday 22 Oct 2014 (Local Time) from KCBM Reporting Station
Clear Clear  
Wind Chill: 46°   Ceiling: Unl
Heat Index: 48°   Visibility: 10mi
Dew Point: 47°   Wind: 5mph
Humidity: 97%   Direction: 340°NNW
Pressure: 30.11"   Gusts: NA
Location:  33.75°N, 88.4°W
Report Text: KCBM 220958Z AUTO 34004KT 10SM CLR 09/09 A3011 RMK AO2 SLP198 T00900086 $
Loading
Personal Weather Stations






























Interactive Weather Map
Tropical Storm Tracking
New forecast layout! Learn more

10-Day Weather Forecast

Advertisements
Track Severe Weather on mobile